Time;durP1;ratioP1;P1;durP2;ratioP2;P2;SDS_P1;SDS_P2;PMS_P1;PMS_P2;Temp;Humidity;BMP_temperature;BMP_pressure;BME280_temperature;BME280_humidity;BME280_pressure;Samples;Min_cycle;Max_cycle;Signal;HPM_P1;HPM_P2
2022/12/23 00:01:04;;;;;;;;;;;8.00;99.90;;;;;;5005806;28;19926;-79
2022/12/23 00:03:31;;;;;;;;;;;8.00;99.90;;;;;;5003158;28;20388;-79
2022/12/23 00:05:59;;;;;;;;;;;8.00;99.90;;;;;;5011795;28;19926;-79
2022/12/23 00:08:28;;;;;;;;;;;8.00;99.90;;;;;;5005405;28;19926;-79
2022/12/23 00:10:56;;;;;;;;;;;8.00;99.90;;;;;;5008634;28;19930;-79
2022/12/23 00:16:11;;;;;;;;;;;8.00;99.90;;;;;;4997205;28;20517;-79
2022/12/23 00:18:41;;;;;;;;;;;8.00;99.90;;;;;;5005944;28;20027;-79
2022/12/23 00:21:09;;;;;;;;;;;8.00;99.90;;;;;;5011873;28;19926;-79
2022/12/23 00:23:37;;;;;;;;;;;8.00;99.90;;;;;;5007819;28;20242;-79
2022/12/23 00:26:07;;;;;;;;;;;8.00;99.90;;;;;;5011105;28;20334;-79
2022/12/23 00:28:34;;;;;;;;;;;8.00;99.90;;;;;;5014195;28;19926;-79
2022/12/23 00:31:04;;;;;;;;;;;8.00;99.90;;;;;;4998486;28;19933;-79
2022/12/23 00:33:32;;;;;;;;;;;8.00;99.90;;;;;;4997111;28;19925;-79
2022/12/23 00:35:58;;;;;;;;;;;8.00;99.90;;;;;;5007977;28;20019;-79
2022/12/23 00:43:58;;;;;;;;;;;8.00;99.90;;;;;;4996439;28;19934;-79
2022/12/23 00:46:27;;;;;;;;;;;8.00;99.90;;;;;;4992783;28;19933;-79
2022/12/23 00:51:40;;;;;;;;;;;8.00;99.90;;;;;;4998937;28;19925;-79
2022/12/23 00:54:07;;;;;;;;;;;8.00;99.90;;;;;;5003443;28;20032;-79
2022/12/23 00:56:36;;;;;;;;;;;8.00;99.90;;;;;;5009668;28;19931;-80
2022/12/23 00:59:02;;;;;;;;;;;8.00;99.90;;;;;;5008793;28;20020;-80
2022/12/23 01:06:58;;;;;;;;;;;8.00;99.90;;;;;;4971720;28;19925;-79
2022/12/23 01:09:25;;;;;;;;;;;8.00;99.90;;;;;;5011517;28;19929;-79
2022/12/23 01:11:56;;;;;;;;;;;8.00;99.90;;;;;;4996671;28;20041;-79
2022/12/23 01:14:23;;;;;;;;;;;8.00;99.90;;;;;;4992632;28;19933;-79
2022/12/23 01:16:50;;;;;;;;;;;8.00;99.90;;;;;;5009531;28;20008;-80
2022/12/23 01:19:17;;;;;;;;;;;8.00;99.90;;;;;;5012894;28;20007;-79
2022/12/23 01:21:46;;;;;;;;;;;8.00;99.90;;;;;;4995717;28;20020;-79
2022/12/23 01:24:13;;;;;;;;;;;8.00;99.90;;;;;;4999663;28;19926;-79
2022/12/23 01:26:40;;;;;;;;;;;8.00;99.90;;;;;;5008662;28;19932;-79
2022/12/23 01:29:09;;;;;;;;;;;8.00;99.90;;;;;;4991190;28;19930;-79
2022/12/23 01:31:35;;;;;;;;;;;8.00;99.90;;;;;;5010578;28;19929;-79
2022/12/23 01:34:02;;;;;;;;;;;8.00;99.90;;;;;;4993956;28;20099;-80
2022/12/23 01:36:32;;;;;;;;;;;8.00;99.90;;;;;;5014471;28;19961;-80
2022/12/23 01:38:59;;;;;;;;;;;8.00;99.90;;;;;;5006994;28;19933;-79
2022/12/23 01:44:36;;;;;;;;;;;8.00;99.90;;;;;;5012674;28;19929;-79
2022/12/23 01:47:34;;;;;;;;;;;8.00;99.90;;;;;;5006022;28;19988;-79
2022/12/23 01:50:03;;;;;;;;;;;8.00;99.90;;;;;;5010149;28;19926;-79
2022/12/23 01:52:31;;;;;;;;;;;8.00;99.90;;;;;;4996574;28;20347;-79
2022/12/23 01:54:58;;;;;;;;;;;8.00;99.90;;;;;;5015133;28;19992;-79
2022/12/23 01:57:33;;;;;;;;;;;8.00;99.90;;;;;;4992455;28;19953;-79
2022/12/23 02:05:35;;;;;;;;;;;8.00;99.90;;;;;;4988661;28;19925;-80
2022/12/23 02:11:00;;;;;;;;;;;8.00;99.90;;;;;;5011453;28;19929;-79
2022/12/23 02:13:31;;;;;;;;;;;8.00;99.90;;;;;;5013777;28;19967;-79
2022/12/23 02:16:17;;;;;;;;;;;8.00;99.90;;;;;;4993987;28;19926;-79
2022/12/23 02:18:56;;;;;;;;;;;8.00;99.90;;;;;;5008680;28;19926;-79
2022/12/23 02:24:21;;;;;;;;;;;8.00;99.90;;;;;;4938462;28;19934;-79
2022/12/23 02:26:56;;;;;;;;;;;8.00;99.90;;;;;;4945251;29;19998;-79
2022/12/23 02:29:46;;;;;;;;;;;8.00;99.90;;;;;;4939037;29;19933;-78
2022/12/23 02:32:16;;;;;;;;;;;8.00;99.90;;;;;;4932074;29;20642;-80
2022/12/23 02:34:49;;;;;;;;;;;8.00;99.90;;;;;;4942270;29;19927;-78
2022/12/23 02:37:20;;;;;;;;;;;8.00;99.90;;;;;;4942781;29;20389;-79
2022/12/23 02:39:50;;;;;;;;;;;8.00;99.90;;;;;;4937752;29;19927;-79
2022/12/23 02:42:21;;;;;;;;;;;8.00;99.90;;;;;;4937059;29;20628;-78
2022/12/23 02:44:56;;;;;;;;;;;8.00;99.90;;;;;;4942886;28;20397;-80
2022/12/23 02:47:29;;;;;;;;;;;8.00;99.90;;;;;;4936105;29;20523;-79
2022/12/23 02:49:57;;;;;;;;;;;8.10;99.90;;;;;;4938645;29;19970;-79
2022/12/23 02:52:27;;;;;;;;;;;8.00;99.90;;;;;;4931604;29;19927;-80
2022/12/23 02:54:56;;;;;;;;;;;8.10;99.90;;;;;;4934531;29;19934;-80
2022/12/23 02:57:25;;;;;;;;;;;8.00;99.90;;;;;;4935780;29;19931;-79
2022/12/23 02:59:52;;;;;;;;;;;8.10;99.90;;;;;;4937417;29;20353;-79
2022/12/23 03:02:20;;;;;;;;;;;8.00;99.90;;;;;;4936687;29;19990;-79
2022/12/23 03:04:50;;;;;;;;;;;8.10;99.90;;;;;;4936785;29;20473;-80
2022/12/23 03:07:20;;;;;;;;;;;8.10;99.90;;;;;;4935672;29;19933;-80
2022/12/23 03:09:55;;;;;;;;;;;8.10;99.90;;;;;;4935924;29;19946;-79
2022/12/23 03:12:24;;;;;;;;;;;8.10;99.90;;;;;;4939076;29;19934;-79
2022/12/23 03:14:58;;;;;;;;;;;8.10;99.90;;;;;;4932060;29;20029;-80
2022/12/23 03:17:32;;;;;;;;;;;8.10;99.90;;;;;;4936912;29;19927;-79
2022/12/23 03:20:03;;;;;;;;;;;8.10;99.90;;;;;;4939045;29;19966;-79
2022/12/23 03:22:34;;;;;;;;;;;8.10;99.90;;;;;;4939107;29;19957;-80
2022/12/23 03:25:03;;;;;;;;;;;8.10;99.90;;;;;;4935930;29;19934;-79
2022/12/23 03:27:34;;;;;;;;;;;8.10;99.90;;;;;;4922579;29;20368;-79
2022/12/23 03:30:04;;;;;;;;;;;8.10;99.90;;;;;;4931912;29;19927;-79
2022/12/23 03:32:35;;;;;;;;;;;8.10;99.90;;;;;;4937108;29;19926;-79
2022/12/23 03:35:06;;;;;;;;;;;8.10;99.90;;;;;;4937614;29;19927;-79
2022/12/23 03:37:41;;;;;;;;;;;8.10;99.90;;;;;;4939322;29;19934;-79
2022/12/23 03:40:09;;;;;;;;;;;8.10;99.90;;;;;;4930932;29;19926;-81
2022/12/23 03:42:38;;;;;;;;;;;8.10;99.90;;;;;;4923682;29;19927;-79
2022/12/23 03:45:08;;;;;;;;;;;8.10;99.90;;;;;;4936146;29;20509;-81
2022/12/23 03:47:37;;;;;;;;;;;8.20;99.90;;;;;;4923488;29;19931;-79
2022/12/23 03:50:07;;;;;;;;;;;8.10;99.90;;;;;;4946632;29;20002;-79
2022/12/23 03:52:38;;;;;;;;;;;8.10;99.90;;;;;;4937332;29;19937;-79
2022/12/23 03:55:07;;;;;;;;;;;8.20;99.90;;;;;;4940055;29;20014;-79
2022/12/23 03:57:36;;;;;;;;;;;8.20;99.90;;;;;;4915508;29;20017;-80
2022/12/23 04:00:05;;;;;;;;;;;8.20;99.90;;;;;;4937819;29;19935;-80
2022/12/23 04:02:39;;;;;;;;;;;8.20;99.90;;;;;;4937833;29;20432;-79
2022/12/23 04:05:18;;;;;;;;;;;8.20;99.90;;;;;;4932516;29;19989;-81
2022/12/23 04:07:48;;;;;;;;;;;8.20;99.90;;;;;;4933452;29;19962;-79
2022/12/23 04:10:15;;;;;;;;;;;8.20;99.90;;;;;;4936462;29;19930;-80
2022/12/23 04:12:42;;;;;;;;;;;8.20;99.90;;;;;;4936038;29;20394;-79
2022/12/23 04:15:11;;;;;;;;;;;8.20;99.90;;;;;;4931275;29;19927;-80
2022/12/23 04:17:39;;;;;;;;;;;8.20;99.90;;;;;;4921087;29;19942;-79
2022/12/23 04:20:07;;;;;;;;;;;8.20;99.90;;;;;;4938971;29;20337;-79
2022/12/23 04:22:35;;;;;;;;;;;8.20;99.90;;;;;;4933390;29;19935;-80
2022/12/23 04:25:02;;;;;;;;;;;8.20;99.90;;;;;;4938280;29;20480;-80
2022/12/23 04:27:29;;;;;;;;;;;8.20;99.90;;;;;;4935549;29;20477;-80
2022/12/23 04:29:56;;;;;;;;;;;8.20;99.90;;;;;;4935891;29;19927;-79
2022/12/23 04:32:23;;;;;;;;;;;8.20;99.90;;;;;;4931051;29;19927;-80
2022/12/23 04:34:50;;;;;;;;;;;8.20;99.90;;;;;;4936733;28;20007;-79
2022/12/23 04:37:17;;;;;;;;;;;8.20;99.90;;;;;;4942075;28;20449;-79
2022/12/23 04:39:45;;;;;;;;;;;8.20;99.90;;;;;;4937861;29;19933;-80
2022/12/23 04:42:12;;;;;;;;;;;8.20;99.90;;;;;;4937075;29;20109;-80
2022/12/23 04:44:39;;;;;;;;;;;8.20;99.90;;;;;;4937467;29;19933;-80
2022/12/23 04:47:06;;;;;;;;;;;8.20;99.90;;;;;;4932343;29;19974;-79
2022/12/23 04:49:33;;;;;;;;;;;8.30;99.90;;;;;;4940283;29;20389;-79
2022/12/23 04:52:00;;;;;;;;;;;8.30;99.90;;;;;;4918287;29;19927;-80
2022/12/23 04:54:28;;;;;;;;;;;8.30;99.90;;;;;;4937097;28;19926;-79
2022/12/23 04:56:57;;;;;;;;;;;8.30;99.90;;;;;;4918292;29;20437;-79
2022/12/23 04:59:24;;;;;;;;;;;8.30;99.90;;;;;;4926455;29;19933;-78
2022/12/23 05:01:50;;;;;;;;;;;8.30;99.90;;;;;;4935780;29;19934;-79
2022/12/23 05:04:21;;;;;;;;;;;8.30;99.90;;;;;;4929813;29;20022;-79
2022/12/23 05:06:48;;;;;;;;;;;8.30;99.90;;;;;;4936669;29;19930;-79
2022/12/23 05:09:16;;;;;;;;;;;8.30;99.90;;;;;;4935530;29;19973;-79
2022/12/23 05:11:43;;;;;;;;;;;8.30;99.90;;;;;;4933347;29;19933;-78
2022/12/23 05:14:14;;;;;;;;;;;8.30;99.90;;;;;;4928811;28;19931;-80
2022/12/23 05:16:43;;;;;;;;;;;8.30;99.90;;;;;;4936470;29;19934;-79
2022/12/23 05:19:11;;;;;;;;;;;8.30;99.90;;;;;;4941382;29;19937;-80
2022/12/23 05:21:39;;;;;;;;;;;8.30;99.90;;;;;;4933002;29;20362;-79
2022/12/23 05:24:06;;;;;;;;;;;8.30;99.90;;;;;;4935165;28;19931;-79
2022/12/23 05:26:33;;;;;;;;;;;8.30;99.90;;;;;;4934662;29;20021;-80
2022/12/23 05:29:00;;;;;;;;;;;8.30;99.90;;;;;;4932538;29;20319;-79
2022/12/23 05:31:28;;;;;;;;;;;8.30;99.90;;;;;;4933422;29;19927;-78
2022/12/23 05:33:55;;;;;;;;;;;8.30;99.90;;;;;;4934419;29;19933;-79
2022/12/23 05:36:22;;;;;;;;;;;8.30;99.90;;;;;;4929983;29;19977;-79
2022/12/23 05:38:52;;;;;;;;;;;8.30;99.90;;;;;;4931479;29;20033;-79
2022/12/23 05:41:19;;;;;;;;;;;8.30;99.90;;;;;;4933739;29;19931;-79
2022/12/23 05:43:47;;;;;;;;;;;8.30;99.90;;;;;;4935366;29;19990;-79
2022/12/23 05:46:19;;;;;;;;;;;8.30;99.90;;;;;;4928826;29;20352;-78
2022/12/23 05:48:47;;;;;;;;;;;8.30;99.90;;;;;;4933223;29;20425;-79
2022/12/23 05:51:15;;;;;;;;;;;8.30;99.90;;;;;;4930787;29;20297;-79
2022/12/23 05:53:42;;;;;;;;;;;8.30;99.90;;;;;;4925814;29;19927;-79
2022/12/23 05:56:09;;;;;;;;;;;8.30;99.90;;;;;;4931379;29;20034;-79
2022/12/23 05:58:44;;;;;;;;;;;8.30;99.90;;;;;;4935137;29;19926;-78
2022/12/23 06:01:14;;;;;;;;;;;8.30;99.90;;;;;;4928748;29;19926;-79
2022/12/23 06:03:44;;;;;;;;;;;8.30;99.90;;;;;;4932691;28;21725;-80
2022/12/23 06:06:17;;;;;;;;;;;8.30;99.90;;;;;;4933724;29;19927;-79
2022/12/23 06:08:44;;;;;;;;;;;8.30;99.90;;;;;;4930551;29;19931;-79
2022/12/23 06:11:11;;;;;;;;;;;8.30;99.90;;;;;;4928804;29;20025;-79
2022/12/23 06:13:40;;;;;;;;;;;8.30;99.90;;;;;;4930934;29;19935;-79
2022/12/23 06:16:07;;;;;;;;;;;8.30;99.90;;;;;;4931231;29;19927;-79
2022/12/23 06:18:36;;;;;;;;;;;8.30;99.90;;;;;;4931531;29;19927;-77
2022/12/23 06:21:03;;;;;;;;;;;8.30;99.90;;;;;;4931043;29;21271;-78
2022/12/23 06:23:34;;;;;;;;;;;8.30;99.90;;;;;;4933766;29;19954;-79
2022/12/23 06:26:03;;;;;;;;;;;8.30;99.90;;;;;;4932336;29;19958;-79
2022/12/23 06:28:30;;;;;;;;;;;8.30;99.90;;;;;;4937633;29;19926;-79
2022/12/23 06:30:57;;;;;;;;;;;8.30;99.90;;;;;;4934886;29;19941;-79
2022/12/23 06:33:25;;;;;;;;;;;8.30;99.90;;;;;;4935316;29;19935;-79
2022/12/23 06:35:53;;;;;;;;;;;8.30;99.90;;;;;;4935586;29;19927;-78
2022/12/23 06:38:22;;;;;;;;;;;8.30;99.90;;;;;;4925373;29;19934;-78
2022/12/23 06:40:52;;;;;;;;;;;8.30;99.90;;;;;;4935854;29;19935;-80
2022/12/23 06:43:24;;;;;;;;;;;8.20;99.90;;;;;;4925599;29;20397;-79
2022/12/23 06:45:51;;;;;;;;;;;8.30;99.90;;;;;;4927208;29;20393;-78
2022/12/23 06:48:21;;;;;;;;;;;8.30;99.90;;;;;;4926059;29;19974;-79
2022/12/23 06:50:48;;;;;;;;;;;8.30;99.90;;;;;;4924865;29;19989;-79
2022/12/23 06:53:14;;;;;;;;;;;8.30;99.90;;;;;;4930027;29;20449;-80
2022/12/23 06:55:41;;;;;;;;;;;8.30;99.90;;;;;;4936603;29;19962;-78
2022/12/23 06:58:10;;;;;;;;;;;8.40;99.90;;;;;;4934244;29;20615;-78
2022/12/23 07:00:37;;;;;;;;;;;8.30;99.90;;;;;;4923997;29;20213;-78
2022/12/23 07:03:04;;;;;;;;;;;8.30;99.90;;;;;;4935054;29;20384;-78
2022/12/23 07:05:31;;;;;;;;;;;8.30;99.90;;;;;;4937645;29;19938;-80
2022/12/23 07:07:58;;;;;;;;;;;8.30;99.90;;;;;;4932948;29;19927;-79
2022/12/23 07:10:25;;;;;;;;;;;8.30;99.90;;;;;;4932992;29;19927;-81
2022/12/23 07:12:52;;;;;;;;;;;8.30;99.90;;;;;;4926741;29;20487;-79
2022/12/23 07:15:22;;;;;;;;;;;8.30;99.90;;;;;;4931947;29;20427;-79
2022/12/23 07:17:51;;;;;;;;;;;8.30;99.90;;;;;;4927793;29;20013;-78
2022/12/23 07:20:18;;;;;;;;;;;8.30;99.90;;;;;;4924353;29;19934;-80
2022/12/23 07:22:49;;;;;;;;;;;8.30;99.90;;;;;;4927005;29;19935;-78
2022/12/23 07:25:17;;;;;;;;;;;8.30;99.90;;;;;;4908223;29;19927;-78
2022/12/23 07:27:44;;;;;;;;;;;8.30;99.90;;;;;;4913726;29;20452;-80
2022/12/23 07:30:14;;;;;;;;;;;8.30;99.90;;;;;;4945342;29;19938;-78
2022/12/23 07:32:43;;;;;;;;;;;8.30;99.90;;;;;;4935267;29;20381;-80
2022/12/23 07:35:13;;;;;;;;;;;8.30;99.90;;;;;;4935910;29;19927;-79
2022/12/23 07:37:40;;;;;;;;;;;8.30;99.90;;;;;;4933608;29;19950;-78
2022/12/23 07:40:07;;;;;;;;;;;8.30;99.90;;;;;;4931237;29;19931;-79
2022/12/23 07:42:35;;;;;;;;;;;8.30;99.90;;;;;;4934559;29;19969;-80
2022/12/23 07:45:03;;;;;;;;;;;8.30;99.90;;;;;;4932655;29;20059;-78
2022/12/23 07:47:31;;;;;;;;;;;8.30;99.90;;;;;;4935316;29;19942;-79
2022/12/23 07:50:00;;;;;;;;;;;8.30;99.90;;;;;;4931140;29;19930;-77
2022/12/23 07:52:30;;;;;;;;;;;8.30;99.90;;;;;;4940865;28;19942;-81
2022/12/23 07:55:05;;;;;;;;;;;8.20;99.90;;;;;;4937913;29;20401;-83
2022/12/23 07:57:36;;;;;;;;;;;8.30;99.90;;;;;;4945494;29;19927;-80
2022/12/23 08:00:07;;;;;;;;;;;8.30;99.90;;;;;;4938027;29;19935;-77
2022/12/23 08:02:54;;;;;;;;;;;8.30;99.90;;;;;;4935284;29;20059;-77
2022/12/23 08:05:24;;;;;;;;;;;8.30;99.90;;;;;;4943382;29;20313;-80
2022/12/23 08:08:11;;;;;;;;;;;8.20;99.90;;;;;;4943866;29;20389;-80
2022/12/23 08:10:39;;;;;;;;;;;8.20;99.90;;;;;;4939501;29;19942;-79
2022/12/23 08:13:06;;;;;;;;;;;8.30;99.90;;;;;;4937991;29;19927;-79
2022/12/23 08:15:34;;;;;;;;;;;8.30;99.90;;;;;;4937673;29;19927;-83
2022/12/23 08:18:04;;;;;;;;;;;8.30;99.90;;;;;;4934748;29;19926;-84
2022/12/23 08:20:33;;;;;;;;;;;8.30;99.90;;;;;;4936500;29;19934;-86
2022/12/23 08:23:00;;;;;;;;;;;8.30;99.90;;;;;;4930996;29;19939;-85
2022/12/23 08:25:31;;;;;;;;;;;8.30;99.90;;;;;;4930641;29;20321;-86
2022/12/23 08:28:04;;;;;;;;;;;8.30;99.90;;;;;;4927918;29;19927;-84
2022/12/23 08:30:31;;;;;;;;;;;8.30;99.90;;;;;;4925038;29;20186;-87
2022/12/23 08:32:58;;;;;;;;;;;8.30;99.90;;;;;;4928565;29;19942;-84
2022/12/23 08:35:26;;;;;;;;;;;8.30;99.90;;;;;;4929869;29;19986;-86
2022/12/23 08:37:58;;;;;;;;;;;8.30;99.90;;;;;;4933764;29;19934;-85
2022/12/23 08:40:26;;;;;;;;;;;8.30;99.90;;;;;;4930777;29;19931;-84
2022/12/23 08:42:53;;;;;;;;;;;8.40;99.90;;;;;;4935602;29;19981;-84
2022/12/23 08:45:21;;;;;;;;;;;8.40;99.90;;;;;;4932743;28;21352;-84
2022/12/23 08:47:47;;;;;;;;;;;8.30;99.90;;;;;;4932814;29;19934;-83
2022/12/23 08:50:14;;;;;;;;;;;8.30;99.90;;;;;;4925296;29;19957;-82
2022/12/23 08:52:41;;;;;;;;;;;8.40;99.90;;;;;;4922371;29;20374;-80
2022/12/23 08:55:10;;;;;;;;;;;8.40;99.90;;;;;;4934445;29;20000;-83
2022/12/23 08:57:37;;;;;;;;;;;8.40;99.90;;;;;;4939773;29;20026;-83
2022/12/23 09:00:04;;;;;;;;;;;8.40;99.90;;;;;;4943225;28;19965;-84
2022/12/23 09:02:32;;;;;;;;;;;8.40;99.90;;;;;;4935147;29;19935;-87
2022/12/23 09:04:59;;;;;;;;;;;8.50;99.90;;;;;;4941874;29;19958;-83
2022/12/23 09:07:26;;;;;;;;;;;8.50;99.90;;;;;;4940659;29;19933;-86
2022/12/23 09:09:53;;;;;;;;;;;8.50;99.90;;;;;;4938022;29;19934;-83
2022/12/23 09:12:25;;;;;;;;;;;8.50;99.90;;;;;;4941373;29;19938;-85
2022/12/23 09:14:52;;;;;;;;;;;8.50;99.90;;;;;;4939727;29;19926;-82
2022/12/23 09:17:19;;;;;;;;;;;8.50;99.90;;;;;;4936923;29;19935;-89
2022/12/23 09:19:46;;;;;;;;;;;8.60;99.90;;;;;;4939068;29;19930;-90
2022/12/23 09:22:13;;;;;;;;;;;8.60;99.90;;;;;;4939516;29;19991;-88
2022/12/23 09:24:40;;;;;;;;;;;8.60;99.90;;;;;;4938703;29;20402;-85
2022/12/23 09:27:07;;;;;;;;;;;8.50;99.90;;;;;;4939783;29;20009;-86
2022/12/23 09:29:38;;;;;;;;;;;8.60;99.90;;;;;;4937040;29;19990;-89
2022/12/23 09:32:05;;;;;;;;;;;8.60;99.90;;;;;;4930303;29;19931;-85
2022/12/23 09:34:32;;;;;;;;;;;8.60;99.90;;;;;;4944125;29;19934;-84
2022/12/23 09:36:59;;;;;;;;;;;8.60;99.90;;;;;;4938222;29;19959;-89
2022/12/23 09:39:26;;;;;;;;;;;8.60;99.90;;;;;;4943384;29;19982;-84
2022/12/23 09:42:00;;;;;;;;;;;8.60;99.90;;;;;;4942770;29;19926;-88
2022/12/23 09:44:32;;;;;;;;;;;8.60;99.90;;;;;;4944701;29;19965;-85
2022/12/23 09:47:02;;;;;;;;;;;8.50;99.90;;;;;;4937743;29;20029;-87
2022/12/23 09:49:29;;;;;;;;;;;8.60;99.90;;;;;;4939585;29;19938;-87
2022/12/23 09:51:59;;;;;;;;;;;8.60;99.90;;;;;;4938484;29;19930;-86
2022/12/23 09:54:28;;;;;;;;;;;8.70;99.90;;;;;;4942051;29;19941;-85
2022/12/23 09:56:57;;;;;;;;;;;8.70;99.90;;;;;;4944056;29;19927;-91
2022/12/23 09:59:42;;;;;;;;;;;8.70;99.90;;;;;;4939346;29;19973;-89
2022/12/23 10:02:19;;;;;;;;;;;8.70;99.90;;;;;;4925169;29;19931;-86
2022/12/23 10:04:52;;;;;;;;;;;8.70;99.90;;;;;;4934950;28;19935;-90
2022/12/23 10:07:26;;;;;;;;;;;8.70;99.90;;;;;;4941564;29;19930;-87
2022/12/23 10:09:54;;;;;;;;;;;8.70;99.90;;;;;;4941879;29;19942;-85
2022/12/23 10:12:26;;;;;;;;;;;8.80;99.90;;;;;;4937843;29;19930;-86
2022/12/23 10:14:55;;;;;;;;;;;8.80;99.90;;;;;;4941088;28;19934;-84
2022/12/23 10:17:28;;;;;;;;;;;8.80;99.90;;;;;;4932612;29;20390;-89
2022/12/23 10:19:57;;;;;;;;;;;8.80;99.90;;;;;;4934005;29;20006;-85
2022/12/23 10:22:29;;;;;;;;;;;8.80;99.90;;;;;;4941628;28;19937;-87
2022/12/23 10:24:57;;;;;;;;;;;8.80;99.90;;;;;;4944173;29;19933;-85
2022/12/23 10:27:27;;;;;;;;;;;8.90;99.90;;;;;;4944074;29;19934;-86
2022/12/23 10:29:55;;;;;;;;;;;8.90;99.90;;;;;;4943235;29;19990;-87
2022/12/23 10:32:25;;;;;;;;;;;8.90;99.90;;;;;;4945544;29;20054;-93
2022/12/23 10:34:56;;;;;;;;;;;8.90;99.90;;;;;;4943046;29;19934;-85
2022/12/23 10:37:28;;;;;;;;;;;8.90;99.90;;;;;;4940149;28;19927;-85
2022/12/23 10:40:00;;;;;;;;;;;8.90;99.90;;;;;;4942498;29;20022;-85
2022/12/23 10:42:29;;;;;;;;;;;9.00;99.90;;;;;;4942683;29;19933;-86
2022/12/23 10:45:09;;;;;;;;;;;9.00;99.90;;;;;;4942855;29;19927;-89
2022/12/23 10:47:42;;;;;;;;;;;9.00;99.90;;;;;;4944461;29;19927;-90
2022/12/23 10:50:21;;;;;;;;;;;9.00;99.90;;;;;;4942408;29;19927;-85
2022/12/23 10:52:48;;;;;;;;;;;9.00;99.90;;;;;;4941884;29;20017;-84
2022/12/23 10:55:21;;;;;;;;;;;9.00;99.90;;;;;;4941445;29;19958;-93
2022/12/23 10:57:48;;;;;;;;;;;9.00;99.90;;;;;;4946395;29;19927;-86
2022/12/23 11:00:17;;;;;;;;;;;9.10;99.90;;;;;;4941530;29;19927;-88
2022/12/23 11:02:47;;;;;;;;;;;9.10;99.90;;;;;;4931316;29;19989;-88
2022/12/23 11:05:17;;;;;;;;;;;9.10;99.90;;;;;;4943097;29;20021;-86
2022/12/23 11:07:45;;;;;;;;;;;9.10;99.90;;;;;;4938323;29;19945;-88
2022/12/23 11:10:18;;;;;;;;;;;9.10;99.90;;;;;;4921332;29;19927;-89
2022/12/23 11:12:47;;;;;;;;;;;9.20;99.90;;;;;;4940178;29;19965;-85
2022/12/23 11:15:31;;;;;;;;;;;9.20;99.90;;;;;;4960363;28;19934;-95
2022/12/23 11:18:00;;;;;;;;;;;9.20;99.90;;;;;;4954039;29;19911;-90
2022/12/23 11:20:28;;;;;;;;;;;9.20;99.90;;;;;;4942728;29;19939;-87
2022/12/23 11:22:58;;;;;;;;;;;9.20;99.90;;;;;;4935658;29;19930;-85
2022/12/23 11:25:27;;;;;;;;;;;9.30;99.90;;;;;;4945759;29;19950;-92
2022/12/23 11:27:56;;;;;;;;;;;9.30;99.90;;;;;;4939693;29;20549;-85
2022/12/23 11:30:24;;;;;;;;;;;;;;;;;;4937849;29;19986;-85
2022/12/23 11:32:51;;;;;;;;;;;9.40;99.90;;;;;;4936460;29;20021;-87
2022/12/23 11:35:24;;;;;;;;;;;9.40;99.90;;;;;;4937514;29;19927;-86
2022/12/23 11:37:53;;;;;;;;;;;9.50;99.90;;;;;;4942273;29;19950;-83
2022/12/23 11:40:33;;;;;;;;;;;9.50;99.90;;;;;;4937236;29;19931;-84
2022/12/23 11:43:03;;;;;;;;;;;9.50;99.90;;;;;;4939602;29;19974;-87
2022/12/23 11:45:32;;;;;;;;;;;;;;;;;;4938811;29;19935;-83
2022/12/23 11:48:00;;;;;;;;;;;9.80;99.90;;;;;;4938738;29;20509;-83
2022/12/23 11:50:33;;;;;;;;;;;9.60;99.90;;;;;;4937915;29;19931;-85
2022/12/23 11:53:23;;;;;;;;;;;9.70;99.90;;;;;;4942629;29;20161;-87
2022/12/23 11:55:58;;;;;;;;;;;9.60;99.90;;;;;;4934472;29;19930;-87
2022/12/23 11:58:28;;;;;;;;;;;9.60;99.90;;;;;;4939873;29;19972;-84
2022/12/23 12:00:55;;;;;;;;;;;9.60;99.90;;;;;;4938221;29;19941;-84
2022/12/23 12:03:27;;;;;;;;;;;9.60;99.90;;;;;;4936693;29;19958;-89
2022/12/23 12:05:57;;;;;;;;;;;9.60;99.90;;;;;;4933341;29;19937;-86
2022/12/23 12:08:28;;;;;;;;;;;9.60;99.90;;;;;;4931180;29;20387;-87
2022/12/23 12:11:02;;;;;;;;;;;9.70;99.90;;;;;;4937411;29;19962;-85
2022/12/23 12:13:35;;;;;;;;;;;9.60;99.90;;;;;;4937892;29;19987;-87
2022/12/23 12:16:10;;;;;;;;;;;9.60;99.90;;;;;;4943675;29;19926;-83
2022/12/23 12:18:38;;;;;;;;;;;9.70;99.90;;;;;;4938365;29;19977;-86
2022/12/23 12:21:07;;;;;;;;;;;9.70;99.90;;;;;;4939147;29;19965;-83
2022/12/23 12:23:41;;;;;;;;;;;9.70;99.90;;;;;;4941775;29;19982;-86
2022/12/23 12:26:13;;;;;;;;;;;9.70;99.90;;;;;;4939534;29;19927;-84
2022/12/23 12:28:42;;;;;;;;;;;9.70;99.90;;;;;;4926267;29;19935;-83
2022/12/23 12:31:15;;;;;;;;;;;9.70;99.90;;;;;;4935714;29;20414;-84
2022/12/23 12:33:47;;;;;;;;;;;9.70;99.90;;;;;;4936791;29;19927;-84
2022/12/23 12:36:16;;;;;;;;;;;9.70;99.90;;;;;;4941030;29;19934;-86
2022/12/23 12:38:51;;;;;;;;;;;9.70;99.90;;;;;;4934538;29;19933;-92
2022/12/23 12:41:20;;;;;;;;;;;9.80;99.90;;;;;;4939389;29;19927;-84
2022/12/23 12:43:50;;;;;;;;;;;9.80;99.90;;;;;;4938177;29;20464;-86
2022/12/23 12:46:22;;;;;;;;;;;9.80;99.90;;;;;;4936866;29;19926;-83
2022/12/23 12:48:57;;;;;;;;;;;9.70;99.90;;;;;;4941946;29;19930;-87
2022/12/23 12:51:26;;;;;;;;;;;9.80;99.90;;;;;;4940953;29;19973;-83
2022/12/23 12:54:05;;;;;;;;;;;9.80;99.90;;;;;;4939602;29;19927;-86
2022/12/23 12:56:35;;;;;;;;;;;9.80;99.90;;;;;;4933730;29;19942;-89
2022/12/23 12:59:02;;;;;;;;;;;9.80;99.90;;;;;;4933261;29;19927;-87
2022/12/23 13:01:36;;;;;;;;;;;9.80;99.90;;;;;;4932799;29;19927;-86
2022/12/23 13:04:25;;;;;;;;;;;9.80;99.90;;;;;;4937328;29;19989;-88
2022/12/23 13:06:57;;;;;;;;;;;9.80;99.90;;;;;;4924197;29;19998;-85
2022/12/23 13:09:31;;;;;;;;;;;9.80;99.90;;;;;;4926541;29;19935;-89
2022/12/23 13:12:07;;;;;;;;;;;9.90;99.90;;;;;;4937396;29;19927;-87
2022/12/23 13:14:51;;;;;;;;;;;9.90;99.90;;;;;;4933227;29;19926;-88
2022/12/23 13:17:21;;;;;;;;;;;9.90;99.90;;;;;;4936270;29;19938;-84
2022/12/23 13:20:00;;;;;;;;;;;9.90;99.90;;;;;;4926239;29;20393;-87
2022/12/23 13:22:31;;;;;;;;;;;9.80;99.90;;;;;;4930755;29;20398;-87
2022/12/23 13:25:05;;;;;;;;;;;9.90;99.90;;;;;;4933143;29;19926;-85
2022/12/23 13:27:34;;;;;;;;;;;9.90;99.90;;;;;;4935897;29;19934;-85
2022/12/23 13:30:16;;;;;;;;;;;9.90;99.90;;;;;;4937994;29;20006;-87
2022/12/23 13:32:59;;;;;;;;;;;9.90;99.90;;;;;;4936194;29;20313;-92
2022/12/23 13:35:32;;;;;;;;;;;9.90;99.90;;;;;;4931364;29;20007;-86
2022/12/23 13:38:03;;;;;;;;;;;9.90;99.90;;;;;;4930501;29;19931;-90
2022/12/23 13:40:35;;;;;;;;;;;9.90;99.90;;;;;;4933536;29;20082;-86
2022/12/23 13:43:05;;;;;;;;;;;9.90;99.90;;;;;;4942370;29;19969;-84
2022/12/23 13:45:34;;;;;;;;;;;10.00;99.90;;;;;;4938512;29;20022;-83
2022/12/23 13:48:11;;;;;;;;;;;10.00;99.90;;;;;;4930807;29;20284;-82
2022/12/23 13:50:41;;;;;;;;;;;10.00;99.90;;;;;;4937577;29;19950;-83
2022/12/23 13:53:13;;;;;;;;;;;10.00;99.90;;;;;;4934291;29;19937;-81
2022/12/23 13:55:51;;;;;;;;;;;10.00;99.90;;;;;;4932956;29;19930;-82
2022/12/23 13:58:21;;;;;;;;;;;10.00;99.90;;;;;;4936730;29;19949;-82
2022/12/23 14:00:58;;;;;;;;;;;10.00;99.90;;;;;;4933519;29;19931;-83
2022/12/23 14:03:26;;;;;;;;;;;10.00;99.90;;;;;;4940003;29;19931;-83
2022/12/23 14:05:54;;;;;;;;;;;10.00;99.90;;;;;;4931896;29;19931;-83
2022/12/23 14:08:35;;;;;;;;;;;10.00;99.90;;;;;;4937003;29;20512;-83
2022/12/23 14:11:11;;;;;;;;;;;10.00;99.90;;;;;;4932016;29;20756;-83
2022/12/23 14:13:40;;;;;;;;;;;10.00;99.90;;;;;;4932288;29;19937;-83
2022/12/23 14:16:16;;;;;;;;;;;10.00;99.90;;;;;;4934552;29;20429;-83
2022/12/23 14:18:48;;;;;;;;;;;10.00;99.90;;;;;;4936147;29;19927;-82
2022/12/23 14:21:19;;;;;;;;;;;10.00;99.90;;;;;;4931683;29;19978;-83
2022/12/23 14:23:52;;;;;;;;;;;10.00;99.90;;;;;;4930591;29;20420;-83
2022/12/23 14:26:36;;;;;;;;;;;10.00;99.90;;;;;;4935383;29;19942;-82
2022/12/23 14:29:33;;;;;;;;;;;10.00;99.90;;;;;;4921342;29;19959;-83
2022/12/23 14:32:10;;;;;;;;;;;10.00;99.90;;;;;;4934166;29;20002;-84
2022/12/23 14:34:40;;;;;;;;;;;10.10;99.90;;;;;;4935341;29;19969;-83
2022/12/23 14:37:26;;;;;;;;;;;10.10;99.90;;;;;;4916492;29;20397;-83
2022/12/23 14:39:54;;;;;;;;;;;10.10;99.90;;;;;;4929819;29;19931;-83
2022/12/23 14:42:33;;;;;;;;;;;10.10;99.90;;;;;;4936868;29;19935;-83
2022/12/23 14:45:35;;;;;;;;;;;10.10;99.90;;;;;;4935062;29;19933;-83
2022/12/23 14:48:31;;;;;;;;;;;10.10;99.90;;;;;;4906024;29;19936;-83
2022/12/23 14:51:02;;;;;;;;;;;10.10;99.90;;;;;;4932341;29;19955;-83
2022/12/23 14:53:29;;;;;;;;;;;10.10;99.90;;;;;;4939317;29;19930;-82
2022/12/23 14:56:24;;;;;;;;;;;10.10;99.90;;;;;;4940838;29;19930;-83
2022/12/23 14:59:02;;;;;;;;;;;10.10;99.90;;;;;;4938871;29;19982;-83
2022/12/23 15:01:35;;;;;;;;;;;10.10;99.90;;;;;;4939912;29;20014;-82
2022/12/23 15:06:59;;;;;;;;;;;10.10;99.90;;;;;;4927427;29;19935;-82
2022/12/23 15:09:28;;;;;;;;;;;10.10;99.90;;;;;;4938687;29;19933;-82
2022/12/23 15:12:01;;;;;;;;;;;10.10;99.90;;;;;;4938613;29;19931;-82
2022/12/23 15:14:31;;;;;;;;;;;10.10;99.90;;;;;;4931632;29;19973;-81
2022/12/23 15:16:58;;;;;;;;;;;10.10;99.90;;;;;;4913453;29;19926;-82
2022/12/23 15:19:27;;;;;;;;;;;10.20;99.90;;;;;;4940315;29;19926;-81
2022/12/23 15:22:09;;;;;;;;;;;10.20;99.90;;;;;;4939016;29;19931;-81